Time;durP1;ratioP1;P1;durP2;ratioP2;P2;SDS_P1;SDS_P2;PMS_P1;PMS_P2;Temp;Humidity;BMP_temperature;BMP_pressure;BME280_temperature;BME280_humidity;BME280_pressure;Samples;Min_cycle;Max_cycle;Signal;HPM_P1;HPM_P2
2022/09/03 00:02:22;;;;;;;4.00;1.70;;;;;;;21.27;42.21;100115.38;5060256;28;20211;-64
2022/09/03 00:04:56;;;;;;;8.90;1.40;;;;;;;21.31;41.87;100107.63;5064582;28;20200;-65
2022/09/03 00:07:34;;;;;;;3.17;1.57;;;;;;;21.35;42.06;100117.75;5061694;28;20652;-64
2022/09/03 00:10:07;;;;;;;3.30;1.83;;;;;;;21.30;42.28;100116.75;5064556;28;20663;-64
2022/09/03 00:12:42;;;;;;;5.43;1.70;;;;;;;21.29;42.35;100120.50;5063513;28;20218;-65
2022/09/03 00:15:14;;;;;;;4.50;1.60;;;;;;;21.26;42.22;100113.72;5063547;28;20211;-64
2022/09/03 00:17:48;;;;;;;6.33;1.63;;;;;;;21.28;41.98;100108.91;5063409;28;20231;-64
2022/09/03 00:20:19;;;;;;;5.13;1.40;;;;;;;21.27;42.05;100112.66;5062986;28;20203;-65
2022/09/03 00:22:49;;;;;;;5.87;1.50;;;;;;;21.23;42.03;100114.16;5058904;28;20215;-64
2022/09/03 00:25:22;;;;;;;10.10;1.50;;;;;;;21.24;42.46;100113.09;5061521;28;20291;-65
2022/09/03 00:27:57;;;;;;;2.87;1.67;;;;;;;21.21;42.71;100118.94;5062120;28;20203;-64
2022/09/03 00:30:27;;;;;;;5.07;1.43;;;;;;;21.20;42.27;100111.91;5063938;28;20203;-64
2022/09/03 00:32:59;;;;;;;10.00;1.40;;;;;;;21.20;42.80;100111.06;5064201;28;20204;-64
2022/09/03 00:35:31;;;;;;;2.43;1.40;;;;;;;21.25;42.46;100109.38;5063007;28;20200;-65
2022/09/03 00:37:59;;;;;;;5.50;1.53;;;;;;;21.28;42.86;100111.63;5057749;28;20233;-65
2022/09/03 00:40:49;;;;;;;4.33;1.77;;;;;;;21.24;42.94;100107.72;5065953;28;20257;-64
2022/09/03 00:43:25;;;;;;;8.40;1.43;;;;;;;21.20;42.64;100102.97;5063443;28;20676;-65
2022/09/03 00:46:04;;;;;;;4.57;1.40;;;;;;;21.19;42.66;100106.75;5060093;28;20199;-63
2022/09/03 00:48:42;;;;;;;2.33;1.17;;;;;;;21.28;42.42;100102.72;5064467;28;20803;-64
2022/09/03 00:51:22;;;;;;;4.97;1.13;;;;;;;21.23;42.18;100100.66;5063599;28;20199;-64
2022/09/03 00:54:00;;;;;;;5.97;1.33;;;;;;;21.22;42.08;100109.81;5066052;28;20616;-65
2022/09/03 00:56:39;;;;;;;2.47;1.30;;;;;;;21.20;42.07;100103.81;5063938;28;20585;-64
2022/09/03 00:59:17;;;;;;;4.20;1.53;;;;;;;21.17;42.34;100106.13;5064045;28;20203;-65
2022/09/03 01:01:57;;;;;;;3.77;1.20;;;;;;;21.14;42.53;100095.78;5063881;28;20294;-65
2022/09/03 01:04:35;;;;;;;4.63;1.30;;;;;;;21.12;42.44;100096.00;5060926;28;20234;-64
2022/09/03 01:07:14;;;;;;;3.37;1.07;;;;;;;21.06;42.47;100093.38;5061761;28;20206;-65
2022/09/03 01:09:53;;;;;;;4.17;1.60;;;;;;;21.00;42.47;100097.81;5059113;28;20211;-65
2022/09/03 01:12:34;;;;;;;4.50;1.20;;;;;;;21.04;42.66;100097.13;5058554;28;20207;-65
2022/09/03 01:15:10;;;;;;;4.60;1.20;;;;;;;21.07;42.21;100090.47;5056188;28;20211;-65
2022/09/03 01:18:02;;;;;;;2.63;1.37;;;;;;;21.04;42.37;100088.22;5057970;28;20684;-65
2022/09/03 01:20:37;;;;;;;4.23;1.63;;;;;;;21.00;42.67;100095.94;5059896;28;20302;-64
2022/09/03 01:23:28;;;;;;;2.83;1.10;;;;;;;20.97;42.39;100096.38;5060921;28;20290;-66
2022/09/03 01:26:13;;;;;;;7.03;1.47;;;;;;;20.91;42.52;100096.47;5060814;28;20776;-65
2022/09/03 01:28:55;;;;;;;4.27;1.30;;;;;;;20.87;42.78;100100.66;5060357;28;20234;-66
2022/09/03 01:31:35;;;;;;;2.57;1.40;;;;;;;20.89;42.96;100096.69;5060377;28;20260;-65
2022/09/03 01:34:14;;;;;;;3.80;1.37;;;;;;;20.91;42.67;100110.78;5057797;28;20206;-64
2022/09/03 01:36:52;;;;;;;3.87;1.30;;;;;;;20.86;42.23;100112.47;5059401;28;20298;-64
2022/09/03 01:39:30;;;;;;;5.43;1.50;;;;;;;20.85;42.59;100105.44;5062239;28;20213;-64
2022/09/03 01:42:14;;;;;;;2.53;1.30;;;;;;;20.81;42.79;100106.94;5058663;28;20734;-65
2022/09/03 01:45:05;;;;;;;2.00;0.90;;;;;;;20.80;42.37;100111.50;5058094;28;20207;-64
2022/09/03 01:47:50;;;;;;;9.07;1.30;;;;;;;20.80;42.45;100111.50;5061436;28;20199;-64
2022/09/03 01:50:33;;;;;;;2.10;1.20;;;;;;;20.81;42.45;100107.75;5063638;28;20302;-64
2022/09/03 01:53:10;;;;;;;1.47;0.80;;;;;;;20.73;42.52;100104.53;5062268;28;20214;-64
2022/09/03 01:55:54;;;;;;;4.97;1.37;;;;;;;20.74;42.78;100112.41;5060625;28;20242;-65
2022/09/03 01:58:30;;;;;;;2.07;1.10;;;;;;;20.75;42.58;100107.84;5060547;28;20312;-64
2022/09/03 02:01:03;;;;;;;4.27;1.17;;;;;;;20.77;42.78;100111.13;5059736;28;20215;-65
2022/09/03 02:03:38;;;;;;;3.57;1.30;;;;;;;20.77;42.58;100108.41;5062530;28;20207;-64
2022/09/03 02:06:08;;;;;;;2.23;1.30;;;;;;;20.75;43.04;100108.66;5058828;28;20209;-65
2022/09/03 02:08:36;;;;;;;3.03;1.30;;;;;;;20.64;43.33;100106.69;5061397;28;20594;-64
2022/09/03 02:11:07;;;;;;;3.83;1.80;;;;;;;20.69;43.11;100111.41;5061226;28;20227;-65
2022/09/03 02:13:38;;;;;;;4.77;1.60;;;;;;;20.73;42.91;100118.84;5062452;28;20209;-65
2022/09/03 02:16:12;;;;;;;1.93;1.03;;;;;;;20.70;43.00;100118.44;5055815;28;20212;-64
2022/09/03 02:18:45;;;;;;;5.17;1.20;;;;;;;20.73;42.72;100115.31;5060057;28;20257;-64
2022/09/03 02:21:18;;;;;;;3.20;1.30;;;;;;;20.69;42.59;100122.19;5062830;28;20294;-64
2022/09/03 02:23:48;;;;;;;2.63;0.90;;;;;;;20.74;42.64;100116.97;5063052;28;21019;-64
2022/09/03 02:26:21;;;;;;;2.27;1.17;;;;;;;20.77;42.59;100116.50;5057293;28;20204;-64
2022/09/03 02:28:50;;;;;;;6.40;1.33;;;;;;;20.75;43.03;100118.63;5059581;28;20209;-64
2022/09/03 02:31:19;;;;;;;3.10;1.50;;;;;;;20.69;42.57;100119.47;5063701;28;20215;-64
2022/09/03 02:33:49;;;;;;;4.10;1.37;;;;;;;20.60;42.61;100117.09;5059418;28;20215;-65
2022/09/03 02:36:20;;;;;;;3.63;1.20;;;;;;;20.62;42.43;100115.00;5058673;28;20207;-65
2022/09/03 02:38:49;;;;;;;3.67;1.07;;;;;;;20.56;42.92;100121.28;5059676;28;20761;-64
2022/09/03 02:41:16;;;;;;;5.60;1.13;;;;;;;20.50;42.92;100122.16;5049699;28;20242;-65
2022/09/03 02:43:47;;;;;;;3.10;1.33;;;;;;;20.50;42.91;100127.53;5046226;28;20214;-64
2022/09/03 02:46:22;;;;;;;5.93;1.17;;;;;;;20.49;43.11;100136.66;5042440;28;20219;-64
2022/09/03 02:48:50;;;;;;;7.17;1.10;;;;;;;20.42;43.11;100130.50;5044937;28;20595;-64
2022/09/03 02:51:17;;;;;;;1.90;0.80;;;;;;;20.49;42.62;100117.00;5046327;28;20212;-65
2022/09/03 02:53:45;;;;;;;6.93;1.27;;;;;;;20.61;42.30;100118.72;5043254;28;20208;-63
2022/09/03 02:56:18;;;;;;;3.17;1.00;;;;;;;20.59;42.59;100110.03;5045298;28;20200;-64
2022/09/03 02:58:45;;;;;;;4.10;1.30;;;;;;;20.54;42.52;100112.59;5049039;28;20231;-64
2022/09/03 03:01:13;;;;;;;1.77;1.00;;;;;;;20.56;42.52;100110.50;5045498;28;20214;-64
2022/09/03 03:03:52;;;;;;;3.07;1.07;;;;;;;20.55;42.65;100110.72;5044209;28;20207;-63
2022/09/03 03:06:21;;;;;;;5.37;1.37;;;;;;;20.48;42.91;100105.41;5043860;28;20226;-64
2022/09/03 03:08:50;;;;;;;2.80;1.00;;;;;;;20.50;43.13;100105.97;5040339;28;20578;-65
2022/09/03 03:11:18;;;;;;;3.00;1.10;;;;;;;20.48;42.86;100100.03;5047459;28;20295;-64
2022/09/03 03:13:46;;;;;;;4.17;0.90;;;;;;;20.41;43.51;100101.94;5045580;28;20211;-64
2022/09/03 03:16:15;;;;;;;3.67;1.10;;;;;;;20.42;43.55;100103.56;5043351;28;20573;-64
2022/09/03 03:18:45;;;;;;;2.90;1.10;;;;;;;20.46;43.69;100103.97;5045063;28;20703;-64
2022/09/03 03:21:15;;;;;;;2.00;1.00;;;;;;;20.50;43.53;100100.59;5041116;28;20859;-64
2022/09/03 03:23:43;;;;;;;3.97;1.07;;;;;;;20.44;43.42;100106.88;5044109;28;20209;-64
2022/09/03 03:26:13;;;;;;;3.37;1.33;;;;;;;20.44;43.42;100112.25;5043252;28;20223;-64
2022/09/03 03:28:41;;;;;;;4.20;1.40;;;;;;;20.40;43.74;100102.16;5045305;28;20302;-64
2022/09/03 03:31:11;;;;;;;2.27;1.07;;;;;;;20.41;43.67;100098.41;5044454;28;20207;-64
2022/09/03 03:33:40;;;;;;;8.97;1.20;;;;;;;20.43;43.56;100099.84;5043391;28;20218;-65
2022/09/03 03:36:10;;;;;;;4.90;1.63;;;;;;;20.42;44.01;100098.19;5047262;28;20215;-63
2022/09/03 03:38:41;;;;;;;13.60;1.37;;;;;;;20.36;43.88;100098.25;5044752;28;20231;-64
2022/09/03 03:41:10;;;;;;;4.60;1.40;;;;;;;20.29;43.89;100104.50;5058130;28;20235;-63
2022/09/03 03:43:37;;;;;;;3.87;1.20;;;;;;;20.39;43.67;100108.59;5061435;28;20692;-64
2022/09/03 03:46:05;;;;;;;4.63;1.27;;;;;;;20.31;43.56;100106.97;5064957;28;20295;-64
2022/09/03 03:48:34;;;;;;;3.73;1.20;;;;;;;20.28;43.87;100102.03;5063649;28;20199;-64
2022/09/03 03:51:03;;;;;;;2.27;1.10;;;;;;;20.32;43.79;100097.81;5062183;28;20203;-64
2022/09/03 03:53:31;;;;;;;2.83;1.10;;;;;;;20.34;44.05;100100.31;5065395;28;20207;-65
2022/09/03 03:56:02;;;;;;;3.73;1.03;;;;;;;20.37;44.16;100100.72;5061651;28;20204;-64
2022/09/03 03:58:31;;;;;;;2.43;1.20;;;;;;;20.34;44.34;100111.94;5065037;28;20226;-64
2022/09/03 04:01:05;;;;;;;3.67;1.20;;;;;;;20.34;43.93;100100.31;5061237;28;20221;-65
2022/09/03 04:03:33;;;;;;;4.37;1.20;;;;;;;20.33;44.22;100110.25;5064145;28;20214;-65
2022/09/03 04:06:01;;;;;;;1.97;1.10;;;;;;;20.34;43.91;100116.47;5064669;28;20314;-65
2022/09/03 04:08:29;;;;;;;2.93;1.07;;;;;;;20.35;44.10;100118.97;5066725;28;20235;-64
2022/09/03 04:11:02;;;;;;;5.10;1.20;;;;;;;20.29;44.29;100114.44;5063774;28;20237;-65
2022/09/03 04:13:30;;;;;;;3.90;1.13;;;;;;;20.24;44.14;100108.88;5063500;28;20394;-65
2022/09/03 04:16:02;;;;;;;3.00;1.43;;;;;;;20.20;44.26;100105.00;5066263;28;20211;-65
2022/09/03 04:18:30;;;;;;;2.10;1.10;;;;;;;20.23;44.15;100104.53;5058100;28;21919;-64
2022/09/03 04:21:03;;;;;;;1.93;1.20;;;;;;;20.23;44.03;100099.16;5059950;28;20242;-63
2022/09/03 04:23:31;;;;;;;2.67;1.20;;;;;;;20.23;44.20;100093.75;5061509;28;20207;-64
2022/09/03 04:26:01;;;;;;;2.37;1.10;;;;;;;20.29;44.18;100103.69;5059637;28;20204;-64
2022/09/03 04:28:29;;;;;;;2.03;1.10;;;;;;;20.25;44.35;100108.66;5066206;28;20203;-64
2022/09/03 04:31:01;;;;;;;3.63;1.20;;;;;;;20.31;44.29;100106.16;5062860;28;20223;-65
2022/09/03 04:33:29;;;;;;;2.93;1.10;;;;;;;20.28;44.48;100112.78;5059330;28;20545;-63
2022/09/03 04:36:08;;;;;;;3.07;1.23;;;;;;;20.29;44.03;100122.53;5060352;28;20221;-63
2022/09/03 04:38:37;;;;;;;3.70;1.30;;;;;;;20.31;44.00;100115.06;5061995;28;20206;-63
2022/09/03 04:41:08;;;;;;;3.20;1.00;;;;;;;20.33;44.49;100118.31;5058676;28;20231;-64
2022/09/03 04:43:36;;;;;;;3.63;1.47;;;;;;;20.29;44.42;100130.59;5064074;28;20203;-64
2022/09/03 04:46:06;;;;;;;4.77;1.33;;;;;;;20.27;44.77;100124.59;5065285;28;20204;-64
2022/09/03 04:48:47;;;;;;;5.10;1.40;;;;;;;20.28;44.91;100127.09;5060432;28;20230;-64
2022/09/03 04:51:17;;;;;;;5.37;1.70;;;;;;;20.31;45.06;100131.22;5066700;28;20290;-64
2022/09/03 04:53:46;;;;;;;3.13;1.00;;;;;;;20.23;44.88;100131.47;5066984;28;20290;-64
2022/09/03 04:56:17;;;;;;;3.57;1.50;;;;;;;20.27;44.92;100138.06;5065757;28;20748;-64
2022/09/03 04:58:45;;;;;;;2.60;1.40;;;;;;;20.25;45.24;100132.06;5064968;28;20303;-64
2022/09/03 05:01:19;;;;;;;4.13;1.23;;;;;;;20.27;44.61;100136.19;5068730;28;20200;-64
2022/09/03 05:03:47;;;;;;;3.67;1.20;;;;;;;20.23;44.43;100142.22;5067061;28;20214;-64
2022/09/03 05:06:16;;;;;;;5.77;1.17;;;;;;;20.24;44.90;100146.56;5068297;28;20203;-63
2022/09/03 05:08:44;;;;;;;5.50;1.30;;;;;;;20.22;45.26;100145.97;5066556;28;20211;-63
2022/09/03 05:11:12;;;;;;;3.13;1.20;;;;;;;20.19;45.87;100141.84;5066443;28;20212;-64
2022/09/03 05:13:41;;;;;;;6.10;1.27;;;;;;;20.26;46.30;100147.19;5068907;28;20214;-64
2022/09/03 05:16:11;;;;;;;4.40;1.10;;;;;;;20.08;49.45;100149.78;5065700;28;20784;-64
2022/09/03 05:18:41;;;;;;;2.93;1.20;;;;;;;19.92;49.17;100161.91;5062087;28;20208;-64
2022/09/03 05:21:11;;;;;;;3.07;1.50;;;;;;;19.95;49.94;100161.50;5061757;28;20322;-64
2022/09/03 05:23:41;;;;;;;5.53;1.10;;;;;;;19.98;51.02;100165.59;5066330;28;20338;-64
2022/09/03 05:26:11;;;;;;;3.50;1.40;;;;;;;19.96;51.43;100173.06;5064277;28;20203;-64
2022/09/03 05:28:41;;;;;;;5.10;1.50;;;;;;;19.91;52.94;100171.84;5064195;28;20212;-64
2022/09/03 05:31:11;;;;;;;5.37;1.50;;;;;;;19.86;53.64;100171.69;5066877;28;20648;-64
2022/09/03 05:33:42;;;;;;;4.23;1.43;;;;;;;19.68;56.50;100168.06;5064180;28;20207;-64
2022/09/03 05:36:12;;;;;;;5.23;1.70;;;;;;;19.54;56.95;100173.47;5065955;28;20218;-64
2022/09/03 05:38:40;;;;;;;3.73;1.53;;;;;;;19.47;55.78;100177.19;5067677;28;20218;-64
2022/09/03 05:41:10;;;;;;;2.10;1.30;;;;;;;19.54;54.68;100178.03;5067341;28;20234;-64
2022/09/03 05:43:38;;;;;;;4.87;1.27;;;;;;;19.63;54.29;100176.75;5059827;28;20224;-64
2022/09/03 05:46:10;;;;;;;3.10;1.33;;;;;;;19.56;55.11;100167.88;5061752;28;20245;-64
2022/09/03 05:48:39;;;;;;;2.80;1.10;;;;;;;19.60;54.56;100169.13;5063248;28;20602;-64
2022/09/03 05:51:09;;;;;;;5.37;1.50;;;;;;;19.64;54.60;100172.19;5063943;28;20230;-64
2022/09/03 05:53:38;;;;;;;2.27;1.30;;;;;;;19.68;54.17;100181.50;5062423;28;20231;-63
2022/09/03 05:56:09;;;;;;;3.73;1.40;;;;;;;19.77;53.80;100174.84;5060446;28;20200;-63
2022/09/03 05:58:39;;;;;;;8.17;1.43;;;;;;;19.87;53.29;100192.16;5062543;28;20282;-63
2022/09/03 06:01:13;;;;;;;3.00;1.30;;;;;;;19.95;53.54;100180.31;5063148;28;20227;-63
2022/09/03 06:03:42;;;;;;;5.33;1.90;;;;;;;19.86;54.65;100184.31;5057569;28;20227;-63
2022/09/03 06:06:12;;;;;;;4.03;1.33;;;;;;;19.74;55.14;100186.00;5063265;28;20218;-63
2022/09/03 06:08:43;;;;;;;3.57;1.50;;;;;;;19.77;55.59;100190.97;5061715;28;20199;-64
2022/09/03 06:11:11;;;;;;;7.10;1.93;;;;;;;19.71;55.89;100184.56;5063523;28;20251;-64
2022/09/03 06:13:39;;;;;;;4.73;1.50;;;;;;;19.70;55.63;100190.19;5060892;28;20207;-63
2022/09/03 06:16:07;;;;;;;5.40;1.30;;;;;;;19.78;55.94;100184.56;5062188;28;20203;-64
2022/09/03 06:18:37;;;;;;;3.17;1.50;;;;;;;19.68;56.49;100184.19;5066937;28;20203;-64
2022/09/03 06:21:07;;;;;;;3.33;1.33;;;;;;;19.64;56.64;100182.94;5061691;28;20227;-64
2022/09/03 06:23:35;;;;;;;5.90;1.50;;;;;;;19.64;56.46;100181.09;5063454;28;20204;-64
2022/09/03 06:26:07;;;;;;;3.90;1.30;;;;;;;19.61;56.66;100186.09;5061292;28;20238;-65
2022/09/03 06:28:39;;;;;;;6.30;1.50;;;;;;;19.57;57.01;100191.06;5062933;28;20335;-64
2022/09/03 06:31:08;;;;;;;4.27;1.30;;;;;;;19.50;57.38;100207.22;5059323;28;20277;-64
2022/09/03 06:33:39;;;;;;;6.10;1.80;;;;;;;19.50;58.44;100209.09;5064472;28;20222;-64
2022/09/03 06:36:09;;;;;;;5.67;1.83;;;;;;;19.59;58.75;100202.44;5062807;28;20621;-63
2022/09/03 06:38:37;;;;;;;5.00;1.70;;;;;;;19.68;59.78;100198.47;5065146;28;20221;-64
2022/09/03 06:41:07;;;;;;;3.90;1.90;;;;;;;19.70;60.90;100206.34;5050999;28;20231;-64
2022/09/03 06:43:37;;;;;;;5.17;2.00;;;;;;;19.59;62.29;100197.06;5044833;28;20212;-63
2022/09/03 06:46:07;;;;;;;5.70;2.67;;;;;;;19.44;64.57;100207.19;5043905;28;20201;-64
2022/09/03 06:48:35;;;;;;;4.83;2.53;;;;;;;19.32;67.61;100208.91;5044164;28;20219;-64
2022/09/03 06:51:06;;;;;;;14.13;3.23;;;;;;;19.31;67.58;100215.31;5042724;28;20209;-63
2022/09/03 06:53:36;;;;;;;10.80;2.47;;;;;;;19.32;68.23;100206.22;5044349;28;20526;-64
2022/09/03 06:56:06;;;;;;;6.50;2.80;;;;;;;19.38;68.20;100214.25;5041980;28;20209;-65
2022/09/03 06:58:36;;;;;;;5.57;2.60;;;;;;;19.22;72.80;100219.28;5044663;28;20572;-65
2022/09/03 07:01:06;;;;;;;3.73;2.30;;;;;;;19.09;73.83;100210.19;5046623;28;20307;-64
2022/09/03 07:03:35;;;;;;;3.70;2.30;;;;;;;18.85;75.30;100201.97;5046192;28;20212;-63
2022/09/03 07:06:05;;;;;;;11.07;2.63;;;;;;;18.65;74.35;100212.69;5045031;28;20216;-63
2022/09/03 07:08:34;;;;;;;9.47;2.40;;;;;;;18.69;72.64;100220.16;5045895;28;20210;-64
2022/09/03 07:11:04;;;;;;;4.73;2.37;;;;;;;18.77;73.73;100230.69;5046722;28;20323;-64
2022/09/03 07:13:33;;;;;;;12.23;2.87;;;;;;;18.86;74.45;100231.31;5051468;28;20240;-64
2022/09/03 07:16:02;;;;;;;8.50;2.50;;;;;;;18.78;75.86;100229.66;5048978;28;20208;-64
2022/09/03 07:18:30;;;;;;;4.13;2.57;;;;;;;18.62;77.36;100229.25;5051285;28;20253;-63
2022/09/03 07:20:59;;;;;;;6.10;2.60;;;;;;;18.57;78.86;100235.22;5050900;28;20606;-65
2022/09/03 07:23:30;;;;;;;6.40;2.77;;;;;;;18.61;77.67;100233.78;5047330;28;20215;-64
2022/09/03 07:25:59;;;;;;;4.70;2.60;;;;;;;18.74;76.68;100238.31;5047960;28;20676;-63
2022/09/03 07:28:28;;;;;;;5.97;2.80;;;;;;;18.78;75.93;100248.47;5048214;28;20295;-63
2022/09/03 07:31:02;;;;;;;4.97;2.90;;;;;;;18.82;77.04;100251.56;5046064;28;20728;-64
2022/09/03 07:33:31;;;;;;;4.20;2.57;;;;;;;18.94;75.68;100255.28;5049624;28;20212;-64
2022/09/03 07:36:05;;;;;;;5.57;2.47;;;;;;;19.07;73.45;100260.66;5046193;28;20258;-64
2022/09/03 07:38:34;;;;;;;4.60;2.70;;;;;;;19.18;71.97;100256.47;5049441;28;20211;-64
2022/09/03 07:41:04;;;;;;;6.53;2.83;;;;;;;19.18;73.27;100246.56;5046621;28;20755;-64
2022/09/03 07:43:36;;;;;;;6.63;3.03;;;;;;;19.11;74.29;100245.75;5047220;28;20294;-64
2022/09/03 07:46:05;;;;;;;4.00;2.70;;;;;;;19.14;76.09;100245.34;5042797;28;20669;-64
2022/09/03 07:48:33;;;;;;;7.40;2.63;;;;;;;19.12;74.05;100233.13;5048860;28;20204;-63
2022/09/03 07:51:04;;;;;;;6.57;3.23;;;;;;;19.11;74.61;100234.16;5046204;28;20204;-64
2022/09/03 07:53:32;;;;;;;9.57;3.70;;;;;;;19.17;76.50;100228.78;5045961;28;20219;-65
2022/09/03 07:56:06;;;;;;;4.73;3.30;;;;;;;19.14;79.11;100215.78;5046531;28;20206;-64
2022/09/03 07:58:35;;;;;;;6.13;3.10;;;;;;;19.14;77.27;100201.50;5046994;28;20208;-64
2022/09/03 08:01:07;;;;;;;6.30;3.60;;;;;;;19.30;77.20;100205.59;5047414;28;20231;-64
2022/09/03 08:03:39;;;;;;;5.57;3.10;;;;;;;19.28;78.02;100196.91;5043569;28;20207;-64
2022/09/03 08:06:07;;;;;;;5.17;3.40;;;;;;;19.44;76.96;100204.50;5045664;28;20306;-64
2022/09/03 08:08:36;;;;;;;7.47;3.33;;;;;;;19.56;77.85;100204.72;5046215;28;20550;-64
2022/09/03 08:11:09;;;;;;;5.27;3.50;;;;;;;19.56;76.79;100229.75;5044019;28;20230;-62
2022/09/03 08:13:39;;;;;;;5.30;3.03;;;;;;;19.58;72.12;100234.91;5042524;28;20703;-59
2022/09/03 08:16:08;;;;;;;9.63;3.13;;;;;;;19.67;72.37;100231.78;5040916;28;20218;-62
2022/09/03 08:18:37;;;;;;;6.27;2.97;;;;;;;19.72;70.96;100242.72;5043579;28;20649;-61
2022/09/03 08:21:07;;;;;;;6.60;3.00;;;;;;;19.72;71.92;100244.56;5042532;28;20231;-62
2022/09/03 08:23:37;;;;;;;7.40;3.90;;;;;;;19.68;74.98;100254.94;5039564;28;20210;-61
2022/09/03 08:26:07;;;;;;;7.33;3.80;;;;;;;19.62;76.57;100244.19;5041676;28;20229;-62
2022/09/03 08:28:35;;;;;;;9.50;4.10;;;;;;;19.57;76.50;100258.28;5039290;28;20218;-64
2022/09/03 08:31:08;;;;;;;5.07;2.93;;;;;;;19.58;75.01;100257.25;5041098;28;20339;-64
2022/09/03 08:33:37;;;;;;;7.63;3.80;;;;;;;19.60;75.81;100257.06;5042146;28;20207;-64
2022/09/03 08:36:07;;;;;;;7.97;3.93;;;;;;;19.51;74.53;100267.22;5042521;28;20575;-64
2022/09/03 08:38:37;;;;;;;6.33;3.73;;;;;;;19.41;75.76;100274.84;5043212;28;20592;-64
2022/09/03 08:41:09;;;;;;;13.00;4.37;;;;;;;19.45;76.94;100278.75;5053200;28;20781;-64
2022/09/03 08:43:57;;;;;;;11.40;4.77;;;;;;;19.44;79.12;100271.72;5065044;28;20251;-63
2022/09/03 08:46:40;;;;;;;8.37;4.10;;;;;;;19.50;77.61;100282.53;5060529;28;20215;-64
2022/09/03 08:49:14;;;;;;;9.57;4.63;;;;;;;19.51;77.42;100278.81;5059430;28;20337;-64
2022/09/03 08:51:44;;;;;;;9.17;4.17;;;;;;;19.50;77.59;100281.69;5060402;28;20641;-65
2022/09/03 08:54:13;;;;;;;5.53;4.27;;;;;;;19.56;76.42;100294.28;5060304;28;20307;-65
2022/09/03 08:56:44;;;;;;;8.30;4.97;;;;;;;19.52;78.58;100285.84;5058686;28;20294;-63
2022/09/03 08:59:11;;;;;;;7.23;3.97;;;;;;;19.49;77.46;100285.41;5061634;28;20223;-64
2022/09/03 09:01:48;;;;;;;8.33;3.97;;;;;;;19.53;76.66;100274.00;5061882;28;20232;-64
2022/09/03 09:04:27;;;;;;;10.07;4.40;;;;;;;19.51;77.92;100269.91;5060846;28;20361;-64
2022/09/03 09:07:04;;;;;;;8.70;4.50;;;;;;;19.57;78.80;100255.59;5061615;28;20208;-66
2022/09/03 09:09:41;;;;;;;7.17;4.00;;;;;;;19.63;81.31;100264.69;5058775;28;20207;-66
2022/09/03 09:12:19;;;;;;;8.03;4.80;;;;;;;19.79;79.29;100293.81;5066238;28;20201;-65
2022/09/03 09:15:01;;;;;;;6.67;4.80;;;;;;;20.04;77.01;100291.25;5062216;28;20215;-65
2022/09/03 09:17:50;;;;;;;8.20;4.87;;;;;;;20.00;76.27;100281.94;5060097;28;20211;-65
2022/09/03 09:20:26;;;;;;;9.30;4.47;;;;;;;20.02;77.58;100274.47;5061386;28;20238;-65
2022/09/03 09:23:01;;;;;;;7.73;6.13;;;;;;;20.17;76.96;100266.94;5060384;28;22555;-65
2022/09/03 09:25:30;;;;;;;8.77;6.20;;;;;;;20.46;75.72;100279.84;5062357;28;20249;-64
2022/09/03 09:28:02;;;;;;;10.57;5.17;;;;;;;20.75;75.12;100274.91;5062293;28;20218;-65
2022/09/03 09:30:32;;;;;;;7.30;4.93;;;;;;;20.92;73.77;100282.22;5063056;28;20226;-64
2022/09/03 09:33:00;;;;;;;6.90;4.67;;;;;;;20.98;71.17;100277.81;5061687;28;20206;-64
2022/09/03 09:35:27;;;;;;;9.43;4.77;;;;;;;21.07;71.98;100279.19;5056455;28;20392;-63
2022/09/03 09:37:59;;;;;;;6.53;4.33;;;;;;;21.11;73.83;100271.47;5062207;28;20582;-64
2022/09/03 09:40:32;;;;;;;8.90;5.20;;;;;;;21.19;70.91;100280.16;5058839;28;20321;-64
2022/09/03 09:43:11;;;;;;;10.10;5.30;;;;;;;21.16;69.77;100294.03;5060447;28;20227;-67
2022/09/03 09:45:40;;;;;;;7.10;4.87;;;;;;;21.26;70.55;100278.19;5060816;28;20297;-66
2022/09/03 09:48:17;;;;;;;9.03;5.60;;;;;;;21.48;71.04;100292.06;5060983;28;20347;-65
2022/09/03 09:50:45;;;;;;;10.60;5.47;;;;;;;21.66;70.20;100291.25;5060921;28;21069;-65
2022/09/03 09:53:16;;;;;;;7.30;5.40;;;;;;;21.75;71.28;100288.03;5061888;28;20211;-66
2022/09/03 09:55:53;;;;;;;9.13;5.90;;;;;;;21.85;69.93;100284.81;5061607;28;20235;-65
2022/09/03 09:58:26;;;;;;;7.83;5.60;;;;;;;22.12;69.48;100277.25;5061934;28;20721;-66
2022/09/03 10:00:56;;;;;;;7.10;5.07;;;;;;;22.34;66.86;100285.69;5059437;28;20226;-66
2022/09/03 10:03:28;;;;;;;7.40;5.10;;;;;;;22.09;67.95;100299.28;5059708;28;20242;-66
2022/09/03 10:08:46;;;;;;;7.43;5.60;;;;;;;21.67;70.15;100287.50;5063150;28;20215;-63
2022/09/03 10:11:14;;;;;;;5.83;4.90;;;;;;;21.68;70.25;100281.06;5061359;28;20657;-63
2022/09/03 10:13:47;;;;;;;7.97;4.93;;;;;;;21.85;69.93;100278.59;5062255;28;20225;-64
2022/09/03 10:16:22;;;;;;;10.20;5.40;;;;;;;22.10;68.93;100280.16;5060088;28;20577;-64
2022/09/03 10:18:58;;;;;;;6.93;5.30;;;;;;;22.24;67.94;100283.53;5059217;28;20214;-66
2022/09/03 10:21:31;;;;;;;7.03;5.90;;;;;;;22.38;65.60;100282.28;5062749;28;20221;-67
2022/09/03 10:24:14;;;;;;;9.33;6.20;;;;;;;22.46;65.89;100283.81;5063912;28;20226;-68
2022/09/03 10:26:44;;;;;;;7.73;5.40;;;;;;;22.46;65.18;100286.53;5060893;28;20207;-69
2022/09/03 10:29:18;;;;;;;8.53;5.50;;;;;;;22.54;64.88;100278.09;5056881;28;20204;-68
2022/09/03 10:31:59;;;;;;;9.90;6.40;;;;;;;22.53;65.40;100279.13;5055699;28;20220;-65
2022/09/03 10:34:36;;;;;;;9.60;6.50;;;;;;;22.54;66.04;100275.38;5056895;28;20245;-66
2022/09/03 10:37:18;;;;;;;8.53;6.20;;;;;;;22.47;65.66;100285.47;5059137;28;20215;-65
2022/09/03 10:39:59;;;;;;;9.07;6.63;;;;;;;22.46;65.59;100283.81;5061061;28;20605;-64
2022/09/03 10:42:41;;;;;;;9.20;6.40;;;;;;;22.29;65.60;100283.66;5060999;28;20788;-63
2022/09/03 10:45:18;;;;;;;11.17;6.70;;;;;;;22.11;66.64;100281.81;5057742;28;21257;-64
2022/09/03 10:48:09;;;;;;;9.20;5.73;;;;;;;22.01;67.92;100281.53;5062582;28;20207;-65
2022/09/03 10:50:48;;;;;;;8.67;6.40;;;;;;;21.91;68.20;100281.19;5063411;28;20554;-64
2022/09/03 10:53:30;;;;;;;7.77;6.10;;;;;;;21.97;68.23;100279.50;5062039;28;20233;-65
2022/09/03 10:56:02;;;;;;;9.20;5.60;;;;;;;22.03;68.44;100274.03;5063104;28;20592;-64
2022/09/03 10:58:48;;;;;;;8.17;6.23;;;;;;;22.25;66.81;100276.25;5062909;28;20610;-65
2022/09/03 11:01:25;;;;;;;8.20;5.97;;;;;;;22.27;66.27;100268.72;5065182;28;20213;-64
2022/09/03 11:04:02;;;;;;;7.80;6.50;;;;;;;22.42;66.11;100266.44;5062814;28;20323;-65
2022/09/03 11:06:41;;;;;;;6.77;5.53;;;;;;;22.48;65.43;100276.31;5064529;28;20848;-65
2022/09/03 11:09:16;;;;;;;6.80;4.93;;;;;;;22.55;64.77;100270.81;5063710;28;20346;-65
2022/09/03 11:11:47;;;;;;;7.93;5.70;;;;;;;22.54;64.99;100275.38;5060251;28;20708;-65
2022/09/03 11:14:24;;;;;;;6.83;5.47;;;;;;;22.55;64.94;100265.41;5064592;28;20671;-63
2022/09/03 11:16:59;;;;;;;7.30;5.60;;;;;;;22.49;65.53;100264.47;5062515;28;20203;-64
2022/09/03 11:19:34;;;;;;;8.50;5.47;;;;;;;22.53;65.38;100268.34;5063124;28;20215;-65
2022/09/03 11:22:04;;;;;;;8.37;6.30;;;;;;;22.64;65.30;100264.00;5066021;28;20206;-65
2022/09/03 11:24:33;;;;;;;7.87;5.07;;;;;;;22.78;63.69;100255.50;5065459;28;20684;-65
2022/09/03 11:27:17;;;;;;;6.97;4.23;;;;;;;23.22;62.32;100258.69;5062316;28;20630;-64
2022/09/03 11:29:52;;;;;;;7.27;4.80;;;;;;;23.65;61.53;100255.63;5066493;28;20209;-64
2022/09/03 11:32:27;;;;;;;5.73;4.00;;;;;;;23.76;61.24;100251.22;5061090;28;20215;-64
2022/09/03 11:34:55;;;;;;;9.10;4.82;;;;;;;23.97;60.76;100253.28;5060798;28;20318;-65
2022/09/03 11:37:25;;;;;;;7.28;3.70;;;;;;;24.01;60.40;100249.06;5066860;28;20218;-64
2022/09/03 11:39:59;;;;;;;9.30;4.70;;;;;;;24.04;59.50;100250.44;5060336;28;20319;-64
2022/09/03 11:42:31;;;;;;;5.38;4.78;;;;;;;23.78;59.92;100249.94;5063285;28;20210;-65
2022/09/03 11:45:12;;;;;;;6.82;4.80;;;;;;;23.52;61.27;100239.63;5065275;28;20212;-64
2022/09/03 11:47:43;;;;;;;7.70;4.40;;;;;;;23.26;62.53;100243.63;5064873;28;20211;-64
2022/09/03 11:50:19;;;;;;;7.88;4.60;;;;;;;23.08;62.75;100241.06;5067273;28;20215;-64
2022/09/03 11:52:50;;;;;;;8.45;4.55;;;;;;;22.95;62.77;100238.59;5066820;28;20214;-64